Pacoima, California
Current Conditions -  °F | °C
As of 8:51 PM on Wednesday 26 Nov 2014 (Local Time) from KVNY Reporting Station
Clear Clear  
Wind Chill: 64°   Ceiling: Unl
Heat Index: 64°   Visibility: 10mi
Dew Point: 26°   Wind: 0mph
Humidity: 24%   Direction: NA
Pressure: 30.16"   Gusts: NA
Location:  34.26°N, 118.43°W
Report Text: KVNY 270451Z 00000KT 10SM CLR 18/M03 A3016 RMK AO2 SLP208 T01781033
Loading
Personal Weather Stations






























Interactive Weather Map New forecast layout! Learn more

10-Day Weather Forecast

Advertisements
Track Severe Weather on mobile